Lyons, OR (97358)

9:20 AM PST on January 27, 2015 (GMT -0800)
RAWS JORDAN OR US | Change Station
CLOSE
Current Station
Personal Weather Station
Location: Lyons, OR
Elevation: 742 ft
Nearby Weather Stations

Elev 742 ft 44.72 °N, 122.69 °W | Updated 1 hour ago

Overcast
Overcast
40 °F
Feels Like 40 °F
N
1
Wind Variable Wind from ENE
Gusts 4.0 mph

Today
High -- | Low -- °F
--% Chance of Precip.
Yesterday
High -- | Low -- °F
Precip. -- in
7:35 AM 5:11 PM
First Quarter, 56% visible
Pressure 30.10 in
Visibility 3.0 miles
Clouds Overcast 500 ft
Windchill 40 °F
Dew Point 40 °F
Humidity 100%
Rainfall 0.01 in
Snow Depth Not available.
UV 0 out of 12
Pollen 2.90 out of 12
Air Quality Not available.
Flu Activity Not available.
METAR KSLE 271656Z 00000KT 3SM BR OVC005 06/06 A3010 RMK AO2 SLP193 T00610061

More Conditions Fewer Conditions

Pressure 30.10 in
Visibility 3.0 miles
Clouds Overcast 500 ft
Windchill 40 °F
Dew Point 40 °F
Humidity 100%
Rainfall 0.01 in
Snow Depth Not available.
UV 0 out of 12
Pollen 2.90 out of 12
Air Quality Not available.
Flu Activity Not available.
METAR KSLE 271656Z 00000KT 3SM BR OVC005 06/06 A3010 RMK AO2 SLP193 T00610061

More Conditions Fewer Conditions

10-Day Weather Forecast

Almanac

Astronomy

Jan. 27, 2015 Rise Set
Actual Time
Civil Twilight
Nautical Twilight
Astronomical Twilight
Moon
Length of Visible Light
Length of Day
Tomorrow will be .
, % of the Moon is Illuminated

Today's Extremes

State Highs State Lows

Community

WunderPhotos

Upload Photos

1,790,731 photos uploaded!

WunderBlogs® & News

Nearby

Air Quality

  Air Quality AQ Index Pollutant
Not available.

Snow Depth

Station Depth Elevation

Earthquake Activity

City Distance Mag. Time & Date
Minimum magnitude displayed is 2.5.

Coastal Water Temperatures

Place Temperature

Nearby Weather Stations